Time;durP1;ratioP1;P1;durP2;ratioP2;P2;SDS_P1;SDS_P2;PMS_P1;PMS_P2;Temp;Humidity;BMP_temperature;BMP_pressure;BME280_temperature;BME280_humidity;BME280_pressure;Samples;Min_cycle;Max_cycle;Signal;HPM_P1;HPM_P2
2023/11/04 00:01:26;;;;;;;6.60;1.80;;;;;;;7.49;78.45;98216.69;7399257;19;20363;-60
2023/11/04 00:03:53;;;;;;;7.10;1.90;;;;;;;7.45;78.58;98211.03;7395502;19;20373;-60
2023/11/04 00:06:20;;;;;;;5.63;2.00;;;;;;;7.43;78.51;98213.06;7397561;19;20392;-60
2023/11/04 00:08:47;;;;;;;6.20;1.73;;;;;;;7.40;79.00;98218.00;7397945;19;20348;-59
2023/11/04 00:11:14;;;;;;;6.47;1.90;;;;;;;7.37;79.04;98213.13;7395296;19;20357;-61
2023/11/04 00:13:41;;;;;;;6.63;1.73;;;;;;;7.31;78.78;98215.63;7397614;19;20423;-60
2023/11/04 00:16:09;;;;;;;7.23;2.20;;;;;;;7.27;79.06;98219.72;7394283;19;20365;-60
2023/11/04 00:18:37;;;;;;;6.85;2.05;;;;;;;7.23;79.11;98207.97;7396355;19;20773;-59
2023/11/04 00:21:07;;;;;;;6.32;1.98;;;;;;;7.18;79.39;98218.34;7397514;19;20376;-60
2023/11/04 00:23:34;;;;;;;8.00;2.08;;;;;;;7.13;79.67;98210.28;7397305;19;20349;-60
2023/11/04 00:26:01;;;;;;;8.18;2.03;;;;;;;7.10;79.86;98213.34;7396838;19;20357;-58
2023/11/04 00:28:28;;;;;;;6.83;2.10;;;;;;;7.07;80.07;98216.38;7397302;19;20368;-60
2023/11/04 00:30:55;;;;;;;6.78;1.90;;;;;;;7.06;80.17;98206.88;7395401;19;20379;-59
2023/11/04 00:33:22;;;;;;;7.65;2.03;;;;;;;7.05;80.15;98216.59;7395716;19;20372;-60
2023/11/04 00:35:51;;;;;;;6.50;2.00;;;;;;;7.03;80.34;98209.94;7396857;19;20863;-60
2023/11/04 00:38:19;;;;;;;8.45;2.15;;;;;;;7.02;80.38;98211.75;7395514;19;20352;-60
2023/11/04 00:40:46;;;;;;;7.10;1.80;;;;;;;6.98;80.62;98215.03;7394868;19;20360;-60
2023/11/04 00:43:13;;;;;;;8.95;2.00;;;;;;;6.98;80.40;98207.94;7396635;19;20469;-60
2023/11/04 00:45:40;;;;;;;7.63;2.03;;;;;;;6.94;80.71;98210.19;7395820;19;20389;-60
2023/11/04 00:48:06;;;;;;;7.22;1.83;;;;;;;6.93;80.97;98219.13;7395831;19;20437;-61
2023/11/04 00:50:33;;;;;;;6.13;2.15;;;;;;;6.96;80.95;98217.09;7394640;19;20406;-60
2023/11/04 00:53:00;;;;;;;6.95;1.80;;;;;;;6.93;80.99;98216.47;7396367;19;20368;-60
2023/11/04 00:55:27;;;;;;;7.40;2.13;;;;;;;6.91;81.28;98210.63;7395303;19;20347;-59
2023/11/04 00:57:55;;;;;;;7.25;2.10;;;;;;;6.93;81.04;98218.31;7396092;19;20416;-60
2023/11/04 01:00:26;;;;;;;8.30;2.30;;;;;;;6.90;81.46;98216.88;7394410;19;20364;-59
2023/11/04 01:02:56;;;;;;;8.38;2.22;;;;;;;6.88;81.38;98223.41;7392205;19;20987;-61
2023/11/04 01:05:23;;;;;;;9.00;2.15;;;;;;;6.85;81.67;98227.28;7392669;19;20444;-60
2023/11/04 01:07:50;;;;;;;7.40;1.88;;;;;;;6.84;81.51;98230.94;7394205;19;20356;-58
2023/11/04 01:10:17;;;;;;;7.82;2.25;;;;;;;6.84;81.58;98219.56;7394534;19;20369;-59
2023/11/04 01:12:44;;;;;;;6.20;2.00;;;;;;;6.82;81.73;98222.44;7389511;19;20369;-58
2023/11/04 01:15:11;;;;;;;6.38;1.73;;;;;;;6.79;81.72;98222.84;7390049;19;20364;-60
2023/11/04 01:17:38;;;;;;;7.45;1.98;;;;;;;6.78;81.83;98212.50;7392913;19;20360;-60
2023/11/04 01:20:07;;;;;;;9.80;2.25;;;;;;;6.75;81.89;98211.09;7391570;19;20390;-60
2023/11/04 01:22:35;;;;;;;8.95;1.90;;;;;;;6.71;82.04;98218.63;7393693;19;20861;-60
2023/11/04 01:25:02;;;;;;;7.15;2.08;;;;;;;6.70;82.20;98213.59;7392785;19;20368;-58
2023/11/04 01:27:29;;;;;;;6.47;1.90;;;;;;;6.68;82.55;98216.41;7393480;19;20368;-59
2023/11/04 01:29:56;;;;;;;5.95;2.20;;;;;;;6.69;82.45;98209.31;7392778;19;20352;-58
2023/11/04 01:32:23;;;;;;;8.38;2.33;;;;;;;6.71;82.53;98210.72;7390393;19;20352;-59
2023/11/04 01:34:50;;;;;;;8.07;2.10;;;;;;;6.70;82.63;98197.78;7393917;19;20385;-59
2023/11/04 01:37:19;;;;;;;6.70;2.08;;;;;;;6.75;82.29;98195.31;7395277;19;20372;-59
2023/11/04 01:39:46;;;;;;;8.30;2.03;;;;;;;6.75;82.34;98192.66;7394220;19;20715;-58
2023/11/04 01:42:13;;;;;;;6.10;1.90;;;;;;;6.75;82.34;98195.31;7392635;19;20423;-60
2023/11/04 01:44:40;;;;;;;7.80;2.20;;;;;;;6.75;82.13;98184.75;7389876;19;20449;-59
2023/11/04 01:47:07;;;;;;;7.03;2.05;;;;;;;6.72;82.24;98191.25;7393732;19;20875;-59
2023/11/04 01:49:34;;;;;;;7.35;2.10;;;;;;;6.70;82.34;98181.97;7393675;19;20372;-58
2023/11/04 01:52:02;;;;;;;6.00;1.92;;;;;;;6.66;82.09;98181.56;7392394;19;20345;-60
2023/11/04 01:54:29;;;;;;;8.02;2.10;;;;;;;6.61;82.22;98188.47;7394020;19;20704;-58
2023/11/04 01:56:57;;;;;;;9.23;2.17;;;;;;;6.56;82.42;98190.94;7393258;19;20420;-56
2023/11/04 01:59:25;;;;;;;7.00;1.95;;;;;;;6.48;82.76;98176.19;7390389;19;20884;-59
2023/11/04 02:01:53;;;;;;;5.43;1.70;;;;;;;6.46;82.63;98178.22;7389499;19;20913;-59
2023/11/04 02:04:19;;;;;;;7.28;2.08;;;;;;;6.40;83.26;98179.09;7389042;19;20452;-58
2023/11/04 02:06:47;;;;;;;8.30;2.10;;;;;;;6.39;82.94;98180.91;7391183;19;20372;-59
2023/11/04 02:09:15;;;;;;;8.50;2.38;;;;;;;6.35;82.99;98179.69;7389554;19;20364;-57
2023/11/04 02:11:42;;;;;;;10.23;2.10;;;;;;;6.32;83.34;98170.41;7389917;19;20873;-57
2023/11/04 02:14:09;;;;;;;9.23;2.40;;;;;;;6.28;83.25;98173.66;7389981;19;20416;-59
2023/11/04 02:16:36;;;;;;;7.55;2.08;;;;;;;6.26;83.31;98171.22;7392313;19;20533;-59
2023/11/04 02:19:04;;;;;;;7.78;2.30;;;;;;;6.23;83.43;98169.03;7390780;19;20368;-59
2023/11/04 02:21:32;;;;;;;9.25;2.20;;;;;;;6.23;83.60;98165.59;7391183;19;20361;-56
2023/11/04 02:23:59;;;;;;;7.32;1.80;;;;;;;6.19;83.68;98161.75;7389423;19;20360;-59
2023/11/04 02:26:26;;;;;;;7.60;2.13;;;;;;;6.16;83.77;98160.31;7392763;19;20352;-57
2023/11/04 02:28:53;;;;;;;7.20;2.30;;;;;;;6.13;83.86;98161.56;7391727;19;20396;-57
2023/11/04 02:31:20;;;;;;;7.10;2.00;;;;;;;6.10;83.78;98167.25;7392172;19;20364;-59
2023/11/04 02:33:47;;;;;;;11.55;2.30;;;;;;;6.07;84.00;98157.13;7392102;19;20359;-59
2023/11/04 02:36:14;;;;;;;7.38;1.92;;;;;;;6.01;83.80;98152.69;7389551;19;20356;-59
2023/11/04 02:38:41;;;;;;;9.83;2.40;;;;;;;5.98;84.39;98152.31;7392196;19;20768;-60
2023/11/04 02:41:08;;;;;;;8.55;2.00;;;;;;;5.96;84.77;98160.41;7389757;19;20369;-59
2023/11/04 02:43:35;;;;;;;5.15;1.70;;;;;;;5.95;85.17;98153.53;7389772;19;20450;-58
2023/11/04 02:46:02;;;;;;;7.30;1.90;;;;;;;5.95;85.12;98158.81;7390982;19;20357;-58
2023/11/04 02:48:28;;;;;;;4.60;1.80;;;;;;;5.96;85.40;98149.88;7391294;19;20352;-59
2023/11/04 02:50:55;;;;;;;7.78;2.10;;;;;;;5.97;85.27;98156.78;7389999;19;20374;-59
2023/11/04 02:53:22;;;;;;;6.07;1.95;;;;;;;5.97;85.52;98148.88;7389868;19;20355;-58
2023/11/04 02:55:49;;;;;;;8.45;2.00;;;;;;;5.98;86.01;98157.59;7390818;19;20336;-59
2023/11/04 02:58:16;;;;;;;6.38;2.10;;;;;;;6.01;85.80;98155.31;7391095;19;20451;-59
2023/11/04 03:00:43;;;;;;;5.60;1.98;;;;;;;6.03;86.11;98157.75;7388045;19;20348;-60
2023/11/04 03:03:09;;;;;;;6.32;1.88;;;;;;;6.08;86.04;98153.50;7387787;19;20377;-58
2023/11/04 03:05:37;;;;;;;5.63;1.90;;;;;;;6.11;85.96;98155.69;7388138;19;20380;-58
2023/11/04 03:08:04;;;;;;;7.03;1.98;;;;;;;6.16;86.14;98159.53;7390134;19;20352;-57
2023/11/04 03:10:31;;;;;;;6.18;1.65;;;;;;;6.22;86.10;98156.06;7391285;19;20368;-57
2023/11/04 03:12:58;;;;;;;6.45;1.77;;;;;;;6.29;85.81;98152.41;7390215;19;20348;-59
2023/11/04 03:15:25;;;;;;;4.88;1.70;;;;;;;6.34;85.48;98151.75;7389214;19;20348;-60
2023/11/04 03:17:52;;;;;;;4.93;1.57;;;;;;;6.41;85.42;98151.72;7390590;19;20446;-57
2023/11/04 03:20:19;;;;;;;7.65;1.80;;;;;;;6.45;85.32;98161.63;7390451;19;20361;-59
2023/11/04 03:22:46;;;;;;;7.18;1.63;;;;;;;6.49;85.07;98160.19;7388794;19;20382;-61
2023/11/04 03:25:15;;;;;;;9.50;2.10;;;;;;;6.52;84.67;98159.78;7389980;19;21088;-60
2023/11/04 03:27:42;;;;;;;4.47;1.63;;;;;;;6.56;84.74;98154.06;7391458;19;20377;-61
2023/11/04 03:30:10;;;;;;;6.65;2.00;;;;;;;6.58;84.49;98152.03;7389557;19;20344;-61
2023/11/04 03:32:37;;;;;;;5.60;1.90;;;;;;;6.60;84.39;98147.38;7388038;19;20412;-60
2023/11/04 03:35:04;;;;;;;6.40;2.10;;;;;;;6.63;84.53;98150.41;7387738;19;20352;-60
2023/11/04 03:37:31;;;;;;;4.93;1.80;;;;;;;6.62;84.29;98147.97;7390857;19;20366;-60
2023/11/04 03:39:58;;;;;;;6.38;1.60;;;;;;;6.65;84.12;98147.53;7388566;19;20384;-58
2023/11/04 03:42:25;;;;;;;6.57;1.67;;;;;;;6.64;84.17;98154.63;7390421;19;20374;-60
2023/11/04 03:44:52;;;;;;;4.63;1.40;;;;;;;6.68;84.17;98147.13;7389547;19;20364;-61
2023/11/04 03:47:18;;;;;;;3.88;1.42;;;;;;;6.68;83.83;98141.84;7387420;19;20364;-59
2023/11/04 03:49:45;;;;;;;6.25;1.67;;;;;;;6.67;83.83;98143.69;7389883;19;20368;-59
2023/11/04 03:52:12;;;;;;;5.15;1.40;;;;;;;6.66;83.98;98143.88;7387450;19;20361;-60
2023/11/04 03:54:40;;;;;;;6.13;1.42;;;;;;;6.66;83.85;98143.88;7389603;19;20340;-61
2023/11/04 03:57:06;;;;;;;5.25;1.40;;;;;;;6.66;83.82;98142.06;7387851;19;20373;-60
2023/11/04 03:59:33;;;;;;;5.93;1.60;;;;;;;6.65;83.55;98139.63;7389773;19;20424;-59
2023/11/04 04:02:00;;;;;;;5.22;1.27;;;;;;;6.62;83.47;98127.69;7388494;19;20352;-60
2023/11/04 04:04:27;;;;;;;3.25;1.35;;;;;;;6.60;83.76;98134.19;7387865;19;20361;-60
2023/11/04 04:06:54;;;;;;;5.13;1.50;;;;;;;6.57;83.80;98134.59;7389524;19;20445;-60
2023/11/04 04:09:20;;;;;;;6.53;1.60;;;;;;;6.53;83.57;98124.50;7395561;19;20356;-59
2023/11/04 04:11:47;;;;;;;6.43;1.80;;;;;;;6.49;83.64;98123.31;7397215;19;20397;-60
2023/11/04 04:14:14;;;;;;;5.95;1.50;;;;;;;6.44;83.70;98117.88;7394957;19;20368;-59
2023/11/04 04:16:41;;;;;;;5.50;1.60;;;;;;;6.39;83.71;98120.31;7396163;19;20371;-57
2023/11/04 04:19:08;;;;;;;6.90;1.60;;;;;;;6.34;84.23;98120.16;7394844;19;20341;-57
2023/11/04 04:21:37;;;;;;;4.72;1.75;;;;;;;6.29;84.18;98117.34;7396188;19;20401;-58
2023/11/04 04:24:04;;;;;;;5.45;1.50;;;;;;;6.23;84.03;98112.94;7395480;19;20382;-58
2023/11/04 04:26:31;;;;;;;4.70;1.80;;;;;;;6.16;84.23;98110.31;7396099;19;20427;-58
2023/11/04 04:28:58;;;;;;;6.57;1.60;;;;;;;6.09;84.53;98101.66;7396317;19;20363;-56
2023/11/04 04:31:27;;;;;;;4.45;1.50;;;;;;;6.01;84.94;98107.94;7395258;19;20360;-58
2023/11/04 04:33:55;;;;;;;4.82;1.63;;;;;;;5.93;85.06;98113.44;7393004;19;20352;-58
2023/11/04 04:36:22;;;;;;;5.38;1.80;;;;;;;5.87;85.57;98109.00;7395212;19;20355;-59
2023/11/04 04:38:51;;;;;;;5.18;1.67;;;;;;;5.82;86.08;98111.44;7394875;19;20447;-59
2023/11/04 04:41:18;;;;;;;5.15;1.58;;;;;;;5.78;86.26;98100.53;7394411;19;20909;-58
2023/11/04 04:43:45;;;;;;;7.13;1.70;;;;;;;5.75;86.42;98100.16;7395377;19;20360;-59
2023/11/04 04:46:11;;;;;;;6.28;1.73;;;;;;;5.73;86.73;98101.16;7394370;19;20762;-59
2023/11/04 04:48:39;;;;;;;5.38;1.60;;;;;;;5.73;87.23;98098.50;7393975;19;20348;-59
2023/11/04 04:51:07;;;;;;;4.60;1.48;;;;;;;5.74;86.94;98088.81;7394314;19;20336;-56
2023/11/04 04:53:36;;;;;;;3.90;1.75;;;;;;;5.77;87.22;98087.59;7393457;19;20387;-58
2023/11/04 04:56:03;;;;;;;6.90;1.90;;;;;;;5.78;87.40;98084.75;7394953;19;20812;-57
2023/11/04 04:58:30;;;;;;;5.95;1.80;;;;;;;5.79;87.27;98080.31;7395221;19;20347;-59
2023/11/04 05:00:57;;;;;;;6.32;1.60;;;;;;;5.79;87.60;98082.94;7393812;19;20432;-59
2023/11/04 05:03:24;;;;;;;4.65;1.55;;;;;;;5.83;87.49;98079.66;7393185;19;20348;-59
2023/11/04 05:05:51;;;;;;;6.13;1.70;;;;;;;5.84;87.27;98077.84;7393538;19;20360;-59
2023/11/04 05:08:18;;;;;;;4.05;1.45;;;;;;;5.84;87.30;98076.00;7393852;19;20360;-58
2023/11/04 05:10:45;;;;;;;7.88;1.90;;;;;;;5.86;87.46;98075.81;7392338;19;20383;-59
2023/11/04 05:13:11;;;;;;;5.00;1.58;;;;;;;5.86;87.45;98070.53;7393857;19;20661;-60
2023/11/04 05:15:38;;;;;;;5.15;1.80;;;;;;;5.84;87.44;98067.31;7394793;19;20358;-59
2023/11/04 05:18:05;;;;;;;5.55;1.90;;;;;;;5.82;87.47;98064.09;7393408;19;20868;-59
2023/11/04 05:20:32;;;;;;;6.32;1.88;;;;;;;5.79;87.46;98065.31;7392958;19;20357;-58
2023/11/04 05:22:59;;;;;;;5.30;1.50;;;;;;;5.78;87.63;98070.78;7392922;19;20713;-60
2023/11/04 05:25:27;;;;;;;3.70;1.63;;;;;;;5.73;87.48;98066.94;7395022;19;20848;-57
2023/11/04 05:27:54;;;;;;;5.38;1.83;;;;;;;5.69;88.20;98060.50;7392638;19;20698;-58
2023/11/04 05:30:21;;;;;;;5.45;1.80;;;;;;;5.69;88.06;98065.75;7393287;19;20898;-58
2023/11/04 05:32:48;;;;;;;6.65;1.90;;;;;;;5.66;88.41;98062.75;7395349;19;20369;-58
2023/11/04 05:35:16;;;;;;;6.95;1.95;;;;;;;5.64;88.25;98064.78;7394828;19;20364;-57
2023/11/04 05:37:44;;;;;;;6.28;1.95;;;;;;;5.61;88.68;98063.38;7395451;19;20415;-57
2023/11/04 05:40:11;;;;;;;5.75;1.90;;;;;;;5.61;89.18;98062.53;7395858;19;20435;-59
2023/11/04 05:42:38;;;;;;;4.15;1.80;;;;;;;5.60;89.33;98064.38;7395621;19;20364;-58
2023/11/04 05:45:05;;;;;;;6.22;1.80;;;;;;;5.60;89.75;98067.00;7395382;19;20357;-59
2023/11/04 05:47:35;;;;;;;4.43;1.80;;;;;;;5.60;90.10;98067.00;7391552;19;20353;-60
2023/11/04 05:50:02;;;;;;;4.50;1.55;;;;;;;5.60;90.63;98060.94;7394860;19;20345;-60
2023/11/04 05:52:29;;;;;;;8.65;2.13;;;;;;;5.64;90.59;98062.16;7395029;19;20440;-54
2023/11/04 05:54:56;;;;;;;5.60;1.98;;;;;;;5.66;90.92;98065.38;7395589;19;20384;-59
2023/11/04 05:57:23;;;;;;;4.35;1.80;;;;;;;5.71;90.51;98066.34;7395606;19;20361;-59
2023/11/04 05:59:50;;;;;;;5.07;2.00;;;;;;;5.76;90.49;98070.19;7394005;19;20851;-59
2023/11/04 06:02:16;;;;;;;4.77;1.90;;;;;;;5.76;90.54;98064.91;7391187;19;20428;-58
2023/11/04 06:04:43;;;;;;;3.95;1.70;;;;;;;5.81;90.34;98062.50;7392921;19;20357;-60
2023/11/04 06:07:10;;;;;;;5.32;2.03;;;;;;;5.84;90.56;98067.31;7392902;19;20357;-58
2023/11/04 06:09:37;;;;;;;5.13;1.90;;;;;;;5.88;90.32;98063.25;7395275;19;20340;-58
2023/11/04 06:12:04;;;;;;;6.30;1.90;;;;;;;5.90;90.25;98051.50;7395486;19;20336;-59
2023/11/04 06:14:31;;;;;;;4.87;1.73;;;;;;;5.94;90.31;98062.41;7393584;19;20919;-59
2023/11/04 06:16:58;;;;;;;5.83;1.90;;;;;;;5.97;89.99;98056.78;7394502;19;20414;-57
2023/11/04 06:19:25;;;;;;;4.15;1.85;;;;;;;6.01;90.00;98060.59;7395164;19;20896;-60
2023/11/04 06:21:52;;;;;;;3.90;1.47;;;;;;;6.06;89.80;98055.50;7395904;19;20381;-58
2023/11/04 06:24:19;;;;;;;4.53;1.55;;;;;;;6.11;89.83;98055.69;7395102;19;20432;-59
2023/11/04 06:26:46;;;;;;;5.05;1.67;;;;;;;6.18;89.54;98052.19;7394650;19;20377;-59
2023/11/04 06:29:13;;;;;;;3.55;1.67;;;;;;;6.25;89.50;98058.25;7394984;19;20868;-58
2023/11/04 06:31:39;;;;;;;3.67;1.50;;;;;;;6.37;89.08;98048.63;7394566;19;20879;-59
2023/11/04 06:34:06;;;;;;;3.47;1.63;;;;;;;6.48;88.64;98049.78;7392564;19;20340;-59
2023/11/04 06:36:33;;;;;;;3.50;1.50;;;;;;;6.59;88.31;98037.75;7393835;19;20363;-58
2023/11/04 06:39:00;;;;;;;3.25;1.45;;;;;;;6.68;87.75;98049.66;7393889;19;20368;-59
2023/11/04 06:41:27;;;;;;;2.53;1.40;;;;;;;6.79;87.58;98048.94;7394610;19;21023;-61
2023/11/04 06:43:54;;;;;;;2.95;1.30;;;;;;;6.87;86.97;98035.50;7394417;19;20750;-58
2023/11/04 06:46:21;;;;;;;3.63;1.40;;;;;;;7.00;86.68;98033.78;7391966;19;20379;-58
2023/11/04 06:48:48;;;;;;;2.92;1.25;;;;;;;7.07;86.03;98034.50;7392814;19;20424;-58
2023/11/04 06:51:19;;;;;;;3.47;1.50;;;;;;;7.21;85.53;98024.66;7392363;19;20885;-59
2023/11/04 06:53:46;;;;;;;2.55;1.20;;;;;;;7.30;85.10;98024.13;7392793;19;20364;-58
2023/11/04 06:56:14;;;;;;;2.67;1.17;;;;;;;7.42;84.53;98029.47;7393851;19;20878;-58
2023/11/04 06:58:40;;;;;;;2.97;1.10;;;;;;;7.56;84.04;98032.75;7393453;19;20744;-59
2023/11/04 07:01:13;;;;;;;3.30;1.30;;;;;;;7.67;83.77;98029.41;7392507;19;20948;-60
2023/11/04 07:03:41;;;;;;;3.88;1.20;;;;;;;7.78;83.32;98027.03;7389087;19;20366;-59
2023/11/04 07:06:13;;;;;;;2.63;1.10;;;;;;;7.87;82.76;98030.97;7393333;19;20445;-59
2023/11/04 07:08:40;;;;;;;3.25;1.17;;;;;;;7.96;82.17;98024.34;7393185;19;20368;-60
2023/11/04 07:11:07;;;;;;;2.60;1.27;;;;;;;8.03;81.91;98019.78;7393146;19;20360;-60
2023/11/04 07:13:34;;;;;;;2.40;1.20;;;;;;;8.09;81.75;98020.72;7392725;19;20420;-57
2023/11/04 07:16:01;;;;;;;2.90;1.30;;;;;;;8.12;81.53;98010.53;7391201;19;20388;-60
2023/11/04 07:18:28;;;;;;;3.65;1.35;;;;;;;8.17;81.14;98007.22;7391024;19;20361;-60
2023/11/04 07:20:57;;;;;;;3.75;1.30;;;;;;;8.21;80.72;98012.84;7391845;19;20379;-60
2023/11/04 07:23:23;;;;;;;3.25;1.25;;;;;;;8.22;80.62;98022.38;7386813;19;20357;-60
2023/11/04 07:25:50;;;;;;;2.50;1.20;;;;;;;8.29;80.50;98023.91;7390725;19;20379;-60
2023/11/04 07:28:17;;;;;;;2.53;1.30;;;;;;;8.30;80.23;98006.22;7391465;19;20360;-61
2023/11/04 07:30:44;;;;;;;2.60;1.10;;;;;;;8.35;80.34;98011.59;7390641;19;20360;-61
2023/11/04 07:33:11;;;;;;;2.15;1.17;;;;;;;8.35;79.81;98009.81;7391178;19;20947;-60
2023/11/04 07:35:38;;;;;;;3.00;1.00;;;;;;;8.40;79.92;98017.03;7393840;19;20393;-59
2023/11/04 07:38:05;;;;;;;3.25;1.42;;;;;;;8.45;79.80;98005.81;7391012;19;20913;-59
2023/11/04 07:40:32;;;;;;;3.75;1.30;;;;;;;8.46;79.58;98002.13;7391729;19;20772;-60
2023/11/04 07:42:58;;;;;;;3.08;1.15;;;;;;;8.46;79.47;98008.25;7394305;19;20372;-59
2023/11/04 07:45:26;;;;;;;2.63;1.00;;;;;;;8.56;79.75;97997.91;7398936;19;20940;-59
2023/11/04 07:47:55;;;;;;;2.30;1.17;;;;;;;8.68;79.44;98005.03;7398765;19;20902;-59
2023/11/04 07:50:22;;;;;;;1.83;1.00;;;;;;;8.74;79.04;98004.94;7398555;19;20357;-58
2023/11/04 07:52:49;;;;;;;2.08;1.10;;;;;;;8.86;78.65;97988.25;7398905;19;20356;-58
2023/11/04 07:55:24;;;;;;;2.40;1.00;;;;;;;8.92;78.25;97993.44;7395051;19;21050;-58
2023/11/04 07:57:52;;;;;;;1.60;0.90;;;;;;;8.99;78.15;97988.06;7399427;19;20353;-61
2023/11/04 08:00:19;;;;;;;1.97;0.97;;;;;;;9.05;78.07;97981.81;7398340;19;20368;-60
2023/11/04 08:02:47;;;;;;;2.10;0.93;;;;;;;9.14;77.72;97988.38;7398058;19;20393;-60
2023/11/04 08:05:15;;;;;;;2.92;1.23;;;;;;;9.17;77.67;97979.16;7399279;19;20404;-59
2023/11/04 08:07:42;;;;;;;2.30;0.85;;;;;;;9.21;77.69;97975.03;7398524;19;20347;-61
2023/11/04 08:10:09;;;;;;;2.40;0.90;;;;;;;9.26;77.42;97972.47;7397408;19;20763;-60
2023/11/04 08:12:36;;;;;;;1.93;0.80;;;;;;;9.33;77.12;97970.50;7397900;19;20356;-60
2023/11/04 08:15:06;;;;;;;3.80;0.97;;;;;;;9.44;76.98;97968.09;7394871;19;20352;-60
2023/11/04 08:17:33;;;;;;;3.45;1.10;;;;;;;9.49;76.45;97957.59;7396836;19;20393;-60
2023/11/04 08:20:08;;;;;;;3.77;0.90;;;;;;;9.50;76.68;97957.34;7398397;19;20364;-60
2023/11/04 08:22:37;;;;;;;1.92;0.82;;;;;;;9.59;76.58;97955.13;7397349;19;20389;-59
2023/11/04 08:25:06;;;;;;;2.10;1.10;;;;;;;9.65;76.53;97950.72;7388915;19;20998;-59
2023/11/04 08:27:33;;;;;;;2.05;0.90;;;;;;;9.70;75.99;97951.63;7394829;19;20333;-58
2023/11/04 08:30:01;;;;;;;1.70;0.70;;;;;;;9.74;75.79;97951.97;7393112;19;21018;-60
2023/11/04 08:32:29;;;;;;;2.45;0.85;;;;;;;9.85;75.44;97945.00;7392882;19;20386;-61
2023/11/04 08:34:58;;;;;;;2.10;0.80;;;;;;;9.91;75.37;97941.41;7389837;19;20340;-59
2023/11/04 08:37:26;;;;;;;2.33;0.80;;;;;;;9.96;75.08;97933.56;7397641;19;20340;-60
2023/11/04 08:39:54;;;;;;;1.70;0.70;;;;;;;9.99;74.73;97943.69;7393018;19;20337;-59
2023/11/04 08:42:23;;;;;;;3.03;1.17;;;;;;;10.08;74.87;97941.44;7398197;19;20340;-60
2023/11/04 08:44:50;;;;;;;2.22;0.90;;;;;;;10.09;74.49;97943.03;7398135;19;20365;-61
2023/11/04 08:47:17;;;;;;;1.57;0.70;;;;;;;10.15;73.95;97952.69;7397984;19;20388;-60
2023/11/04 08:49:44;;;;;;;2.05;0.90;;;;;;;10.27;74.07;97953.41;7397122;19;20863;-58
2023/11/04 08:52:11;;;;;;;2.88;1.10;;;;;;;10.35;73.84;97947.75;7395360;19;20365;-55
2023/11/04 08:54:40;;;;;;;2.03;0.80;;;;;;;10.46;73.96;97958.53;7393160;19;20356;-60
2023/11/04 08:57:07;;;;;;;1.77;0.70;;;;;;;10.59;74.04;97939.63;7397791;19;20447;-60
2023/11/04 08:59:35;;;;;;;3.22;1.10;;;;;;;10.69;73.58;97946.91;7397332;19;20367;-60
2023/11/04 09:02:02;;;;;;;1.98;1.00;;;;;;;10.74;72.90;97945.16;7396309;19;20807;-62
2023/11/04 09:04:29;;;;;;;1.20;0.67;;;;;;;10.88;72.73;97958.06;7396771;19;20354;-59
2023/11/04 09:06:56;;;;;;;2.10;0.80;;;;;;;11.09;72.88;97961.78;7397752;19;20420;-59
2023/11/04 09:09:23;;;;;;;1.50;0.88;;;;;;;11.22;71.87;97959.59;7397083;19;20715;-60
2023/11/04 09:11:50;;;;;;;6.65;0.95;;;;;;;11.42;72.21;97959.03;7397986;19;20412;-61
2023/11/04 09:14:17;;;;;;;1.95;0.80;;;;;;;11.58;71.46;97964.50;7396633;19;20349;-60
2023/11/04 09:16:44;;;;;;;2.30;0.77;;;;;;;11.63;69.41;97967.25;7396342;19;20372;-61
2023/11/04 09:19:11;;;;;;;2.50;0.80;;;;;;;11.81;69.34;97972.19;7397997;19;20328;-62
2023/11/04 09:21:39;;;;;;;2.63;0.80;;;;;;;11.90;68.83;97958.50;7398295;19;20369;-61
2023/11/04 09:24:07;;;;;;;2.72;0.80;;;;;;;12.02;68.27;97951.19;7395845;19;20336;-62
2023/11/04 09:26:33;;;;;;;2.42;0.80;;;;;;;12.08;67.75;97942.22;7397460;19;20349;-60
2023/11/04 09:29:01;;;;;;;1.73;0.68;;;;;;;12.22;67.93;97937.31;7397241;19;20328;-61
2023/11/04 09:31:28;;;;;;;1.30;0.60;;;;;;;12.39;67.96;97931.84;7397506;19;20431;-62
2023/11/04 09:33:55;;;;;;;2.60;0.80;;;;;;;12.48;67.09;97940.94;7394236;19;20383;-60
2023/11/04 09:36:23;;;;;;;1.60;0.80;;;;;;;12.44;67.10;97937.19;7396973;19;20356;-61
2023/11/04 09:38:49;;;;;;;1.50;0.60;;;;;;;12.25;66.63;97936.78;7393674;19;20903;-61
2023/11/04 09:41:16;;;;;;;2.37;0.80;;;;;;;12.13;67.08;97939.59;7394457;19;20913;-62
2023/11/04 09:43:43;;;;;;;2.25;0.80;;;;;;;11.98;68.00;97931.50;7392213;19;20420;-61
2023/11/04 09:46:10;;;;;;;2.33;0.75;;;;;;;11.83;68.69;97924.16;7392028;19;20368;-60
2023/11/04 09:48:37;;;;;;;2.37;0.90;;;;;;;11.79;69.23;97923.88;7393255;19;20785;-61
2023/11/04 09:51:12;;;;;;;2.40;0.90;;;;;;;11.72;69.42;97920.59;7394214;19;20356;-61
2023/11/04 09:53:48;;;;;;;1.65;0.80;;;;;;;11.60;69.60;97922.59;7394782;19;20336;-61
2023/11/04 09:56:15;;;;;;;1.98;0.88;;;;;;;11.60;70.10;97907.47;7394626;19;20352;-61
2023/11/04 09:58:42;;;;;;;1.50;0.68;;;;;;;11.65;70.19;97911.25;7396609;19;20344;-60
2023/11/04 10:01:09;;;;;;;2.45;0.77;;;;;;;11.67;70.16;97904.63;7396845;19;20383;-62
2023/11/04 10:03:36;;;;;;;2.30;1.07;;;;;;;11.67;70.09;97896.66;7395656;19;20417;-62
2023/11/04 10:06:04;;;;;;;1.55;0.82;;;;;;;11.77;70.39;97896.75;7397761;19;20683;-62
2023/11/04 10:08:30;;;;;;;1.70;0.75;;;;;;;11.88;70.38;97891.50;7400537;19;20339;-62
2023/11/04 10:10:57;;;;;;;3.00;1.00;;;;;;;11.97;70.56;97887.41;7396052;19;20959;-61
2023/11/04 10:13:24;;;;;;;1.73;0.80;;;;;;;12.02;70.32;97896.19;7396400;19;20358;-61
2023/11/04 10:15:51;;;;;;;2.65;0.80;;;;;;;11.92;68.72;97897.97;7393485;19;20365;-62
2023/11/04 10:18:18;;;;;;;1.77;0.75;;;;;;;11.83;67.67;97893.06;7393770;19;20345;-62
2023/11/04 10:20:45;;;;;;;2.00;0.60;;;;;;;11.70;67.15;97898.78;7394499;19;20423;-61
2023/11/04 10:23:12;;;;;;;1.77;0.60;;;;;;;11.74;67.50;97893.78;7393969;19;20712;-61
2023/11/04 10:25:39;;;;;;;1.70;0.57;;;;;;;11.68;67.41;97884.97;7395815;19;20424;-61
2023/11/04 10:28:06;;;;;;;5.32;0.60;;;;;;;11.66;67.44;97895.03;7395273;19;20420;-60
2023/11/04 10:30:33;;;;;;;1.27;0.70;;;;;;;11.59;67.31;97892.59;7394659;19;20336;-60
2023/11/04 10:33:07;;;;;;;3.03;0.63;;;;;;;11.55;67.75;97896.78;7394513;19;20336;-61
2023/11/04 10:35:35;;;;;;;2.40;0.70;;;;;;;11.50;68.01;97895.94;7393974;19;20333;-61
2023/11/04 10:38:06;;;;;;;2.30;0.60;;;;;;;11.52;68.43;97891.19;7393414;19;20372;-60
2023/11/04 10:40:34;;;;;;;1.10;0.50;;;;;;;11.55;68.71;97896.00;7394385;19;20352;-61
2023/11/04 10:43:09;;;;;;;2.03;0.60;;;;;;;11.59;68.16;97891.78;7395633;19;20332;-61
2023/11/04 10:45:46;;;;;;;2.40;0.77;;;;;;;11.87;68.22;97876.66;7391799;19;20848;-61
2023/11/04 10:48:23;;;;;;;0.90;0.30;;;;;;;12.17;66.45;97866.28;7394648;19;20380;-60
2023/11/04 10:50:59;;;;;;;1.48;0.60;;;;;;;12.37;65.49;97856.88;7394456;19;20435;-62
2023/11/04 10:53:44;;;;;;;1.17;0.57;;;;;;;12.56;64.98;97844.75;7392402;19;20356;-61
2023/11/04 10:56:19;;;;;;;2.20;0.57;;;;;;;12.74;64.53;97853.34;7391974;19;20444;-60
2023/11/04 10:59:00;;;;;;;1.38;0.47;;;;;;;12.81;64.02;97838.75;7394338;19;20357;-61
2023/11/04 11:01:29;;;;;;;1.70;0.53;;;;;;;12.79;63.63;97845.38;7391500;19;20349;-61
2023/11/04 11:03:56;;;;;;;1.13;0.52;;;;;;;12.74;63.76;97832.84;7392362;19;20371;-61
2023/11/04 11:06:24;;;;;;;0.95;0.47;;;;;;;12.78;64.51;97828.63;7394749;19;20770;-62
2023/11/04 11:08:52;;;;;;;2.20;0.70;;;;;;;12.92;64.96;97823.63;7393344;19;20371;-61
2023/11/04 11:11:34;;;;;;;1.17;0.50;;;;;;;13.12;65.51;97828.22;7394147;19;20336;-60
2023/11/04 11:14:02;;;;;;;2.22;0.60;;;;;;;13.35;65.30;97813.66;7393617;19;20363;-61
2023/11/04 11:16:30;;;;;;;2.30;0.60;;;;;;;13.62;65.77;97812.63;7390702;19;20370;-60
2023/11/04 11:19:26;;;;;;;1.42;0.50;;;;;;;13.82;64.23;97803.84;7392848;19;20340;-60
2023/11/04 11:21:53;;;;;;;1.30;0.50;;;;;;;13.80;63.47;97805.97;7395510;19;20373;-60
2023/11/04 11:24:21;;;;;;;1.80;0.50;;;;;;;13.81;63.03;97802.22;7399859;19;20372;-63
2023/11/04 11:27:00;;;;;;;1.80;0.80;;;;;;;13.75;62.71;97806.78;7399954;19;20333;-62
2023/11/04 11:29:27;;;;;;;2.15;0.65;;;;;;;13.69;62.96;97799.84;7399361;19;20758;-61
2023/11/04 11:32:05;;;;;;;2.15;0.47;;;;;;;13.59;62.93;97789.19;7397245;19;20375;-61
2023/11/04 11:34:32;;;;;;;1.10;0.50;;;;;;;13.42;62.68;97794.75;7394391;19;20397;-61
2023/11/04 11:37:00;;;;;;;4.03;0.60;;;;;;;13.30;63.16;97783.56;7394238;19;20884;-62
2023/11/04 11:39:29;;;;;;;1.65;0.60;;;;;;;13.19;63.67;97786.16;7397136;19;21523;-61
2023/11/04 11:41:59;;;;;;;1.40;0.60;;;;;;;13.16;64.49;97768.06;7399384;19;20755;-60